Time;durP1;ratioP1;P1;durP2;ratioP2;P2;SDS_P1;SDS_P2;PMS_P1;PMS_P2;Temp;Humidity;BMP_temperature;BMP_pressure;BME280_temperature;BME280_humidity;BME280_pressure;Samples;Min_cycle;Max_cycle;Signal;HPM_P1;HPM_P2
2022/04/10 00:01:38;;;;;;;3.75;1.52;;;7.20;54.50;;;;;;5125712;28;20523;-73
2022/04/10 00:04:05;;;;;;;2.72;1.50;;;7.20;54.70;;;;;;5134541;28;20035;-73
2022/04/10 00:06:31;;;;;;;3.65;1.30;;;7.20;54.90;;;;;;5115684;28;20027;-73
2022/04/10 00:08:57;;;;;;;7.18;1.77;;;7.10;55.70;;;;;;5115771;28;20110;-73
2022/04/10 00:11:23;;;;;;;3.10;1.52;;;7.10;55.20;;;;;;5115844;28;20020;-74
2022/04/10 00:13:48;;;;;;;2.50;1.33;;;7.10;55.20;;;;;;5134099;28;20507;-74
2022/04/10 00:16:14;;;;;;;2.28;1.42;;;7.10;55.20;;;;;;5134040;28;20454;-73
2022/04/10 00:18:40;;;;;;;6.18;1.80;;;7.10;55.00;;;;;;5133906;28;20079;-73
2022/04/10 00:21:07;;;;;;;3.70;1.48;;;7.00;55.10;;;;;;5134147;28;20412;-73
2022/04/10 00:23:33;;;;;;;3.28;1.42;;;7.00;55.10;;;;;;5134107;28;20504;-73
2022/04/10 00:26:00;;;;;;;4.38;1.92;;;6.90;55.40;;;;;;5134130;28;20023;-73
2022/04/10 00:28:25;;;;;;;3.90;1.70;;;6.90;55.50;;;;;;5134391;28;20011;-73
2022/04/10 00:30:51;;;;;;;2.85;1.60;;;6.90;55.40;;;;;;5134080;28;20020;-73
2022/04/10 00:33:17;;;;;;;4.43;1.75;;;6.90;55.50;;;;;;5133959;28;20031;-73
2022/04/10 00:35:44;;;;;;;3.33;1.75;;;6.90;55.70;;;;;;5115579;28;20023;-73
2022/04/10 00:38:09;;;;;;;4.00;1.63;;;6.90;55.80;;;;;;5133797;28;20039;-73
2022/04/10 00:40:36;;;;;;;2.55;1.40;;;6.90;55.60;;;;;;5118735;28;20459;-73
2022/04/10 00:43:02;;;;;;;4.47;1.70;;;6.90;55.70;;;;;;5095251;28;20387;-73
2022/04/10 00:45:27;;;;;;;2.95;1.70;;;6.80;55.70;;;;;;5095109;28;20019;-72
2022/04/10 00:47:54;;;;;;;4.85;1.60;;;6.80;55.70;;;;;;5094932;28;20084;-73
2022/04/10 00:50:20;;;;;;;5.30;1.88;;;6.80;56.00;;;;;;5094981;28;20072;-73
2022/04/10 00:52:48;;;;;;;4.18;2.03;;;6.80;56.00;;;;;;5094859;28;20122;-73
2022/04/10 00:55:15;;;;;;;7.75;2.50;;;6.80;56.30;;;;;;5094643;28;20049;-73
2022/04/10 00:57:46;;;;;;;2.47;1.65;;;6.70;56.40;;;;;;5113329;28;20024;-73
2022/04/10 01:00:14;;;;;;;4.00;1.90;;;6.70;56.30;;;;;;5095067;28;20041;-73
2022/04/10 01:02:40;;;;;;;3.47;1.70;;;6.70;56.40;;;;;;5095464;28;20051;-73
2022/04/10 01:05:08;;;;;;;2.97;1.60;;;6.70;56.60;;;;;;5098275;28;20024;-74
2022/04/10 01:07:34;;;;;;;4.55;1.83;;;6.70;56.60;;;;;;5116647;28;20098;-73
2022/04/10 01:10:00;;;;;;;2.95;1.80;;;6.70;56.70;;;;;;5098400;28;20120;-73
2022/04/10 01:12:26;;;;;;;3.10;1.83;;;6.60;56.80;;;;;;5098162;28;20039;-73
2022/04/10 01:14:52;;;;;;;6.05;2.17;;;6.60;56.80;;;;;;5098044;28;20027;-74
2022/04/10 01:17:19;;;;;;;3.75;1.90;;;6.60;57.00;;;;;;5098163;28;20073;-75
2022/04/10 01:19:45;;;;;;;3.28;1.80;;;6.60;57.20;;;;;;5116152;28;20455;-73
2022/04/10 01:22:32;;;;;;;6.03;2.15;;;6.60;57.30;;;;;;5115954;28;20110;-73
2022/04/10 01:24:59;;;;;;;2.95;1.85;;;6.50;57.40;;;;;;5098092;28;20024;-73
2022/04/10 01:27:25;;;;;;;4.15;2.20;;;6.50;57.40;;;;;;5115898;28;20030;-73
2022/04/10 01:29:51;;;;;;;4.47;1.73;;;6.50;57.50;;;;;;5116286;28;20028;-73
2022/04/10 01:32:18;;;;;;;3.40;2.20;;;6.50;57.50;;;;;;5116175;28;20374;-74
2022/04/10 01:34:44;;;;;;;3.90;2.00;;;6.40;57.60;;;;;;5114649;28;20024;-73
2022/04/10 01:37:12;;;;;;;3.17;1.50;;;6.40;57.60;;;;;;5116447;28;20028;-73
2022/04/10 01:39:37;;;;;;;4.50;1.90;;;6.40;57.80;;;;;;5104479;27;20485;-72
2022/04/10 01:42:04;;;;;;;7.15;2.47;;;6.40;57.90;;;;;;5136607;27;20061;-73
2022/04/10 01:44:29;;;;;;;8.68;2.08;;;6.40;57.90;;;;;;5136506;27;20034;-74
2022/04/10 01:46:55;;;;;;;4.88;2.63;;;6.40;57.80;;;;;;5118060;27;20377;-73
2022/04/10 01:49:21;;;;;;;3.33;2.15;;;6.30;57.90;;;;;;5117869;27;20023;-73
2022/04/10 01:51:47;;;;;;;7.03;2.55;;;6.30;58.10;;;;;;5136448;27;20080;-73
2022/04/10 01:54:12;;;;;;;7.80;2.10;;;6.30;58.20;;;;;;5136650;27;20039;-73
2022/04/10 01:56:38;;;;;;;5.75;2.00;;;6.30;58.40;;;;;;5136336;27;20404;-72
2022/04/10 01:59:04;;;;;;;5.28;2.78;;;6.30;58.40;;;;;;5136296;27;20058;-74
2022/04/10 02:01:30;;;;;;;7.38;1.98;;;6.20;58.60;;;;;;5135902;27;20050;-74
2022/04/10 02:03:56;;;;;;;3.55;2.00;;;6.20;58.70;;;;;;5136187;27;20031;-73
2022/04/10 02:06:21;;;;;;;3.55;1.75;;;6.20;58.60;;;;;;5117662;27;20427;-73
2022/04/10 02:08:47;;;;;;;6.55;2.70;;;6.20;58.60;;;;;;5135803;27;20098;-73
2022/04/10 02:11:21;;;;;;;4.32;2.20;;;6.10;58.70;;;;;;5117543;27;20140;-72
2022/04/10 02:13:48;;;;;;;7.63;2.10;;;6.10;58.70;;;;;;5116947;28;20035;-73
2022/04/10 02:16:16;;;;;;;5.68;2.08;;;6.10;58.70;;;;;;5116989;27;20024;-72
2022/04/10 02:18:42;;;;;;;5.93;1.98;;;6.10;58.90;;;;;;5117509;27;20458;-73
2022/04/10 02:21:09;;;;;;;3.58;2.03;;;6.10;58.90;;;;;;5135847;27;20090;-73
2022/04/10 02:23:35;;;;;;;4.35;2.10;;;6.10;58.80;;;;;;5117383;27;20098;-73
2022/04/10 02:26:02;;;;;;;4.35;2.42;;;6.00;58.80;;;;;;5135829;27;20023;-73
2022/04/10 02:28:28;;;;;;;4.55;2.40;;;6.00;59.10;;;;;;5117261;27;20023;-73
2022/04/10 02:30:54;;;;;;;3.90;2.35;;;6.00;59.20;;;;;;5135444;27;20027;-73
2022/04/10 02:33:19;;;;;;;5.13;2.03;;;6.00;59.10;;;;;;5135496;27;20084;-74
2022/04/10 02:35:45;;;;;;;4.47;1.95;;;6.00;59.20;;;;;;5117048;27;20027;-73
2022/04/10 02:38:11;;;;;;;2.50;1.70;;;5.90;59.40;;;;;;5116793;27;20027;-73
2022/04/10 02:40:37;;;;;;;6.13;2.08;;;5.90;59.30;;;;;;5135612;27;20043;-73
2022/04/10 02:43:03;;;;;;;3.40;2.03;;;5.90;59.20;;;;;;5134703;27;20038;-73
2022/04/10 02:45:29;;;;;;;6.75;2.00;;;5.90;59.30;;;;;;5116940;27;20115;-73
2022/04/10 02:47:55;;;;;;;6.85;2.05;;;5.90;59.30;;;;;;5116794;27;20474;-74
2022/04/10 02:50:21;;;;;;;3.85;1.85;;;5.90;59.20;;;;;;5134928;27;20098;-73
2022/04/10 02:52:48;;;;;;;3.70;2.35;;;5.90;59.10;;;;;;5134885;27;20043;-73
2022/04/10 02:55:14;;;;;;;5.03;1.85;;;5.90;59.20;;;;;;5116520;27;20027;-72
2022/04/10 02:57:40;;;;;;;2.72;2.00;;;5.90;59.20;;;;;;5116688;27;20033;-72
2022/04/10 03:00:07;;;;;;;2.50;1.70;;;5.80;59.10;;;;;;5116650;27;20027;-73
2022/04/10 03:02:33;;;;;;;3.03;2.10;;;5.80;58.90;;;;;;5116228;27;20034;-73
2022/04/10 03:04:59;;;;;;;9.85;2.78;;;5.80;58.90;;;;;;5134683;27;20106;-73
2022/04/10 03:07:25;;;;;;;5.18;2.38;;;5.80;59.10;;;;;;5134970;27;20026;-73
2022/04/10 03:09:50;;;;;;;4.60;2.10;;;5.70;59.40;;;;;;5134569;27;20024;-73
2022/04/10 03:12:16;;;;;;;4.63;2.10;;;5.80;59.50;;;;;;5134548;27;20459;-73
2022/04/10 03:14:42;;;;;;;3.35;1.70;;;5.80;59.40;;;;;;5134521;27;20023;-73
2022/04/10 03:17:08;;;;;;;5.63;2.30;;;5.80;59.30;;;;;;5134471;27;20401;-73
2022/04/10 03:19:34;;;;;;;3.65;1.73;;;5.70;59.30;;;;;;5134697;27;20023;-73
2022/04/10 03:22:00;;;;;;;5.25;2.15;;;5.80;59.50;;;;;;5116234;27;20023;-72
2022/04/10 03:24:26;;;;;;;5.43;2.40;;;5.80;59.70;;;;;;5134466;27;20027;-73
2022/04/10 03:26:51;;;;;;;3.88;1.80;;;5.90;59.90;;;;;;5134317;27;20224;-74
2022/04/10 03:29:18;;;;;;;6.47;2.38;;;5.90;59.90;;;;;;5133908;27;20467;-73
2022/04/10 03:31:44;;;;;;;5.82;2.85;;;6.00;60.20;;;;;;5134659;27;20110;-73
2022/04/10 03:34:10;;;;;;;7.43;2.53;;;6.10;60.50;;;;;;5134470;27;20038;-73
2022/04/10 03:36:35;;;;;;;3.72;2.35;;;6.20;60.50;;;;;;5133867;27;20102;-73
2022/04/10 03:39:01;;;;;;;4.20;2.53;;;6.30;60.50;;;;;;5134317;27;20027;-73
2022/04/10 03:41:27;;;;;;;4.85;2.03;;;6.40;60.50;;;;;;5116048;28;20472;-73
2022/04/10 03:43:53;;;;;;;5.72;2.47;;;6.50;60.40;;;;;;5134305;27;20033;-73
2022/04/10 03:46:20;;;;;;;5.30;2.08;;;6.60;60.20;;;;;;5115531;27;20462;-73
2022/04/10 03:48:46;;;;;;;2.72;1.90;;;6.70;60.00;;;;;;5134360;27;20055;-73
2022/04/10 03:51:11;;;;;;;4.20;2.03;;;6.80;59.70;;;;;;5134459;27;20033;-73
2022/04/10 03:53:38;;;;;;;5.82;2.58;;;6.80;59.50;;;;;;5115756;28;20045;-72
2022/04/10 03:56:04;;;;;;;6.43;2.97;;;6.90;59.30;;;;;;5134236;28;20026;-74
2022/04/10 03:58:30;;;;;;;6.70;2.60;;;7.00;59.00;;;;;;5134229;28;20439;-73
2022/04/10 04:00:56;;;;;;;2.97;2.13;;;7.10;58.80;;;;;;5134325;28;20068;-73
2022/04/10 04:03:22;;;;;;;4.70;2.38;;;7.10;58.60;;;;;;5115865;28;20027;-73
2022/04/10 04:05:48;;;;;;;6.85;2.30;;;7.10;58.40;;;;;;5134030;28;20439;-73
2022/04/10 04:08:15;;;;;;;3.70;1.85;;;7.20;58.40;;;;;;5115868;28;20049;-73
2022/04/10 04:10:41;;;;;;;5.30;2.38;;;7.20;58.30;;;;;;5115842;28;20028;-73
2022/04/10 04:13:07;;;;;;;4.00;2.05;;;7.20;58.20;;;;;;5115704;28;20034;-74
2022/04/10 04:15:33;;;;;;;5.35;2.00;;;7.30;58.00;;;;;;5133920;28;20441;-72
2022/04/10 04:17:59;;;;;;;8.90;2.15;;;7.30;57.80;;;;;;5134191;28;20051;-73
2022/04/10 04:20:25;;;;;;;4.15;2.38;;;7.20;57.70;;;;;;5134166;28;20352;-73
2022/04/10 04:22:51;;;;;;;6.30;1.95;;;7.20;57.60;;;;;;5115777;28;20450;-73
2022/04/10 04:25:17;;;;;;;4.15;2.38;;;7.20;57.70;;;;;;5134174;28;20015;-75
2022/04/10 04:27:43;;;;;;;5.18;2.28;;;7.20;57.80;;;;;;5134073;28;20046;-73
2022/04/10 04:30:09;;;;;;;5.25;2.20;;;7.20;57.80;;;;;;5115587;28;20023;-73
2022/04/10 04:32:35;;;;;;;4.88;1.77;;;7.20;57.90;;;;;;5133735;28;20034;-73
2022/04/10 04:35:00;;;;;;;3.85;2.20;;;7.20;58.00;;;;;;5115627;28;20027;-73
2022/04/10 04:37:26;;;;;;;4.35;2.45;;;7.20;58.00;;;;;;5115838;27;20382;-73
2022/04/10 04:39:52;;;;;;;4.97;2.58;;;7.30;58.10;;;;;;5137839;27;20103;-75
2022/04/10 04:42:17;;;;;;;8.13;3.20;;;7.40;58.20;;;;;;5137642;27;20038;-73
2022/04/10 04:44:43;;;;;;;5.60;3.35;;;7.40;58.20;;;;;;5137830;27;20033;-73
2022/04/10 04:47:09;;;;;;;3.67;2.20;;;7.50;58.10;;;;;;5137522;27;20072;-73
2022/04/10 04:49:35;;;;;;;7.32;2.20;;;7.50;57.90;;;;;;5137781;27;20022;-73
2022/04/10 04:52:00;;;;;;;4.65;2.22;;;7.50;57.90;;;;;;5119189;27;20059;-72
2022/04/10 04:54:26;;;;;;;3.90;1.95;;;7.60;57.90;;;;;;5137425;27;20023;-73
2022/04/10 04:56:53;;;;;;;5.30;2.33;;;7.60;57.70;;;;;;5137645;27;20378;-75
2022/04/10 04:59:19;;;;;;;4.13;2.20;;;7.70;57.50;;;;;;5137318;27;20020;-73
2022/04/10 05:01:45;;;;;;;6.07;2.47;;;7.70;57.40;;;;;;5119124;27;20374;-73
2022/04/10 05:04:12;;;;;;;4.53;2.63;;;7.70;57.20;;;;;;5137804;27;20019;-73
2022/04/10 05:06:38;;;;;;;3.47;2.15;;;7.70;57.00;;;;;;5137162;27;20068;-73
2022/04/10 05:09:07;;;;;;;6.97;2.95;;;7.70;57.00;;;;;;5118963;27;20106;-74
2022/04/10 05:11:33;;;;;;;9.43;3.25;;;7.70;57.00;;;;;;5118870;27;20047;-73
2022/04/10 05:13:59;;;;;;;5.18;2.72;;;7.70;57.00;;;;;;5137313;27;20110;-72
2022/04/10 05:16:25;;;;;;;7.00;2.55;;;7.70;57.20;;;;;;5137247;27;20479;-73
2022/04/10 05:18:51;;;;;;;7.13;3.03;;;7.70;57.40;;;;;;5118615;27;20090;-73
2022/04/10 05:21:17;;;;;;;5.18;3.15;;;7.70;57.50;;;;;;5137173;27;20116;-73
2022/04/10 05:23:42;;;;;;;10.20;3.08;;;7.80;57.50;;;;;;5118688;27;20035;-73
2022/04/10 05:26:08;;;;;;;6.88;3.15;;;7.80;57.50;;;;;;5118395;27;20030;-73
2022/04/10 05:28:34;;;;;;;5.07;2.95;;;7.80;57.40;;;;;;5118650;27;20519;-74
2022/04/10 05:31:04;;;;;;;4.07;2.50;;;7.90;57.40;;;;;;5118397;27;20451;-73
2022/04/10 05:33:33;;;;;;;7.20;3.13;;;7.90;57.50;;;;;;5136954;27;20023;-73
2022/04/10 05:36:00;;;;;;;6.55;2.92;;;8.00;57.60;;;;;;5136634;27;20027;-73
2022/04/10 05:38:25;;;;;;;6.18;3.25;;;8.00;57.60;;;;;;5118054;27;20037;-73
2022/04/10 05:40:55;;;;;;;11.23;4.65;;;8.10;57.40;;;;;;5135998;27;20047;-73
2022/04/10 05:43:22;;;;;;;6.63;3.25;;;8.20;57.30;;;;;;5117366;27;20031;-73
2022/04/10 05:45:49;;;;;;;5.40;3.10;;;8.30;57.30;;;;;;5136717;27;20023;-73
2022/04/10 05:48:14;;;;;;;4.20;2.70;;;8.30;57.00;;;;;;5136095;27;20023;-73
2022/04/10 05:50:41;;;;;;;7.65;3.08;;;8.40;56.80;;;;;;5118185;27;20061;-73
2022/04/10 05:53:06;;;;;;;11.57;2.60;;;8.50;56.80;;;;;;5117879;27;20027;-73
2022/04/10 05:55:32;;;;;;;10.27;3.00;;;8.60;56.80;;;;;;5118068;27;20035;-73
2022/04/10 05:57:58;;;;;;;8.52;3.25;;;8.70;56.70;;;;;;5136260;27;20032;-73
2022/04/10 06:00:25;;;;;;;7.13;3.05;;;8.70;56.60;;;;;;5136129;27;20027;-73
2022/04/10 06:02:51;;;;;;;10.35;3.35;;;8.80;56.50;;;;;;5117954;27;20073;-73
2022/04/10 06:05:21;;;;;;;9.50;3.38;;;8.90;56.20;;;;;;5117914;27;20412;-75
2022/04/10 06:07:48;;;;;;;7.72;3.10;;;9.00;55.90;;;;;;5135008;27;20023;-73
2022/04/10 06:10:16;;;;;;;5.75;3.15;;;9.00;55.70;;;;;;5117533;27;20023;-73
2022/04/10 06:12:42;;;;;;;8.88;3.13;;;9.10;55.50;;;;;;5136131;27;20031;-73
2022/04/10 06:15:08;;;;;;;8.32;2.88;;;9.10;55.60;;;;;;5136129;27;20038;-73
2022/04/10 06:17:34;;;;;;;5.78;2.90;;;9.20;55.80;;;;;;5136069;27;20023;-73
2022/04/10 06:20:00;;;;;;;6.05;2.42;;;9.20;55.70;;;;;;5136090;27;20110;-73
2022/04/10 06:22:26;;;;;;;7.93;3.20;;;9.30;55.60;;;;;;5117553;27;20076;-73
2022/04/10 06:24:53;;;;;;;7.32;2.83;;;9.40;55.50;;;;;;5117542;27;20379;-73
2022/04/10 06:27:19;;;;;;;6.43;3.05;;;9.50;55.20;;;;;;5117219;27;20065;-73
2022/04/10 06:29:45;;;;;;;6.68;3.05;;;9.50;55.20;;;;;;5117563;27;20078;-73
2022/04/10 06:32:11;;;;;;;5.45;2.67;;;9.60;55.20;;;;;;5135675;27;20032;-73
2022/04/10 06:34:37;;;;;;;7.30;3.30;;;9.70;55.10;;;;;;5116675;27;20031;-73
2022/04/10 06:37:04;;;;;;;6.80;3.50;;;9.80;55.00;;;;;;5135708;27;20054;-73
2022/04/10 06:39:30;;;;;;;6.38;2.80;;;9.80;55.00;;;;;;5116746;27;20050;-73
2022/04/10 06:41:56;;;;;;;16.73;9.50;;;9.90;54.70;;;;;;5135501;27;20102;-73
2022/04/10 06:44:21;;;;;;;7.47;4.15;;;10.00;54.60;;;;;;5135827;27;20522;-74
2022/04/10 06:46:47;;;;;;;7.68;3.80;;;10.10;54.50;;;;;;5135403;27;20027;-73
2022/04/10 06:49:13;;;;;;;8.07;3.58;;;10.10;54.20;;;;;;5116626;27;20050;-73
2022/04/10 06:51:40;;;;;;;9.05;3.50;;;10.20;53.80;;;;;;5116958;27;20058;-73
2022/04/10 06:54:07;;;;;;;9.48;4.40;;;10.20;53.60;;;;;;5135297;27;20470;-74
2022/04/10 06:56:33;;;;;;;8.00;3.92;;;10.20;53.60;;;;;;5116732;27;20074;-73
2022/04/10 06:58:59;;;;;;;5.68;3.00;;;10.20;53.50;;;;;;5116856;27;20031;-73
2022/04/10 07:01:25;;;;;;;7.28;3.47;;;10.20;53.10;;;;;;5134597;27;20060;-73
2022/04/10 07:03:50;;;;;;;7.32;4.15;;;10.20;53.20;;;;;;5116611;27;20486;-73
2022/04/10 07:06:16;;;;;;;8.55;4.00;;;10.20;53.30;;;;;;5135131;27;20024;-73
2022/04/10 07:08:42;;;;;;;7.25;3.60;;;10.30;53.20;;;;;;5133896;27;20023;-73
2022/04/10 07:11:08;;;;;;;9.70;3.50;;;10.30;53.10;;;;;;5134873;27;20046;-73
2022/04/10 07:13:34;;;;;;;5.72;2.97;;;10.30;53.70;;;;;;5116575;27;20040;-74
2022/04/10 07:16:00;;;;;;;6.88;3.03;;;10.50;53.30;;;;;;5116588;27;20482;-73
2022/04/10 07:18:26;;;;;;;6.18;2.58;;;10.60;53.50;;;;;;5134526;27;20034;-73
2022/04/10 07:20:52;;;;;;;8.35;3.05;;;10.70;53.50;;;;;;5116565;27;20025;-73
2022/04/10 07:26:06;;;;;;;7.57;3.55;;;11.00;52.20;;;;;;5134892;27;20542;-74
2022/04/10 07:28:32;;;;;;;8.18;2.78;;;11.10;51.40;;;;;;5134492;27;20059;-74
2022/04/10 07:30:58;;;;;;;7.80;3.55;;;11.20;51.20;;;;;;5134843;27;20023;-74
2022/04/10 07:33:24;;;;;;;4.93;2.95;;;11.20;51.30;;;;;;5134591;27;20036;-73
2022/04/10 07:35:50;;;;;;;7.13;3.42;;;11.30;51.30;;;;;;5116502;27;20035;-73
2022/04/10 07:38:17;;;;;;;7.03;2.80;;;11.30;50.50;;;;;;5116133;27;20075;-73
2022/04/10 07:40:43;;;;;;;9.00;3.30;;;11.30;50.60;;;;;;5134064;27;20049;-73
2022/04/10 07:43:09;;;;;;;5.18;3.10;;;11.40;50.70;;;;;;5116092;28;20031;-75
2022/04/10 07:48:19;;;;;;;7.38;3.13;;;11.40;50.50;;;;;;5134388;27;20058;-73
2022/04/10 07:50:46;;;;;;;5.95;2.95;;;11.50;50.50;;;;;;5134474;27;20110;-74
2022/04/10 07:53:14;;;;;;;8.38;3.65;;;11.50;50.50;;;;;;5115654;27;20052;-73
2022/04/10 07:55:40;;;;;;;10.82;3.15;;;11.60;50.40;;;;;;5115756;28;20114;-73
2022/04/10 07:58:06;;;;;;;6.45;3.30;;;11.70;50.60;;;;;;5134406;28;20538;-73
2022/04/10 08:00:32;;;;;;;6.80;3.28;;;11.80;50.20;;;;;;5115939;28;20363;-73
2022/04/10 08:02:59;;;;;;;7.70;3.30;;;11.90;49.90;;;;;;5116012;28;20027;-73
2022/04/10 08:05:25;;;;;;;8.00;3.17;;;12.00;49.60;;;;;;5134295;28;20075;-73
2022/04/10 08:07:51;;;;;;;5.35;2.90;;;12.20;49.40;;;;;;5134257;28;20023;-73
2022/04/10 08:10:17;;;;;;;5.45;2.88;;;12.30;49.30;;;;;;5115844;28;20050;-75
2022/04/10 08:12:44;;;;;;;8.50;3.00;;;12.50;49.20;;;;;;5118392;27;20027;-73
2022/04/10 08:15:13;;;;;;;8.02;3.15;;;12.60;49.00;;;;;;5120003;27;20031;-75
2022/04/10 08:17:40;;;;;;;8.63;3.03;;;12.60;48.40;;;;;;5119920;27;20477;-73
2022/04/10 08:20:07;;;;;;;4.38;2.90;;;12.60;48.10;;;;;;5138280;27;20034;-74
2022/04/10 08:22:36;;;;;;;11.13;3.33;;;12.70;48.20;;;;;;5119303;27;20023;-73
2022/04/10 08:25:07;;;;;;;7.03;3.58;;;12.80;47.90;;;;;;5138328;27;20027;-72
2022/04/10 08:27:34;;;;;;;7.25;3.58;;;12.90;47.40;;;;;;5119789;27;20019;-71
2022/04/10 08:30:01;;;;;;;8.43;3.78;;;13.00;47.40;;;;;;5119869;27;20102;-72
2022/04/10 08:32:35;;;;;;;11.73;3.78;;;13.00;46.70;;;;;;5137927;27;20050;-72
2022/04/10 08:35:00;;;;;;;7.18;4.03;;;13.10;46.10;;;;;;5119581;27;20376;-73
2022/04/10 08:37:26;;;;;;;6.80;3.80;;;13.10;45.50;;;;;;5119710;27;20035;-73
2022/04/10 08:39:52;;;;;;;6.45;3.55;;;13.10;45.20;;;;;;5136958;27;20130;-73
2022/04/10 08:42:18;;;;;;;7.43;3.55;;;13.10;45.20;;;;;;5137973;27;20026;-73
2022/04/10 08:44:44;;;;;;;10.50;4.50;;;13.00;45.60;;;;;;5137820;27;20095;-73
2022/04/10 08:47:11;;;;;;;6.82;3.67;;;12.90;46.10;;;;;;5137542;27;20023;-73
2022/04/10 08:49:38;;;;;;;13.85;4.15;;;12.70;46.30;;;;;;5137785;27;20106;-73
2022/04/10 08:52:05;;;;;;;9.85;4.13;;;12.50;49.20;;;;;;5137833;27;20038;-73
2022/04/10 08:54:33;;;;;;;6.80;3.33;;;12.10;50.70;;;;;;5119264;27;20035;-73
2022/04/10 08:56:59;;;;;;;5.35;3.30;;;11.90;51.50;;;;;;5138246;27;20028;-74
2022/04/10 08:59:25;;;;;;;6.35;2.90;;;11.60;52.20;;;;;;5137312;27;20376;-73
2022/04/10 09:01:53;;;;;;;4.90;3.28;;;11.30;52.30;;;;;;5119062;27;20027;-74
2022/04/10 09:04:20;;;;;;;4.15;2.65;;;11.10;52.50;;;;;;5137241;27;20496;-74
2022/04/10 09:07:02;;;;;;;4.75;3.13;;;10.90;52.90;;;;;;5118955;27;20068;-76
2022/04/10 09:09:28;;;;;;;5.07;3.40;;;10.80;53.50;;;;;;5136902;27;20021;-75
2022/04/10 09:11:55;;;;;;;5.20;3.55;;;10.70;54.40;;;;;;5137108;27;20462;-75
2022/04/10 09:14:26;;;;;;;4.00;2.85;;;10.70;54.80;;;;;;5118750;27;20118;-75
2022/04/10 09:17:24;;;;;;;6.22;3.55;;;10.70;54.90;;;;;;5137643;27;20031;-74
2022/04/10 09:19:52;;;;;;;10.15;3.63;;;10.80;55.20;;;;;;5136987;27;20487;-75
2022/04/10 09:22:33;;;;;;;6.20;3.88;;;10.90;54.20;;;;;;5118851;27;20082;-75
2022/04/10 09:25:12;;;;;;;5.88;4.00;;;11.00;54.40;;;;;;5136218;27;20103;-77
2022/04/10 09:27:46;;;;;;;6.25;3.30;;;11.10;53.20;;;;;;5118973;27;20452;-75
2022/04/10 09:30:17;;;;;;;6.68;3.70;;;11.20;52.90;;;;;;5118250;27;20031;-75
2022/04/10 09:32:43;;;;;;;6.47;3.80;;;11.30;52.70;;;;;;5137003;27;20064;-75
2022/04/10 09:35:11;;;;;;;7.22;3.55;;;11.30;51.70;;;;;;5118454;27;20065;-75
2022/04/10 09:37:51;;;;;;;4.88;3.35;;;11.30;51.60;;;;;;5136506;27;20032;-75
2022/04/10 09:40:28;;;;;;;6.75;3.92;;;11.30;51.90;;;;;;5123993;27;20479;-76
2022/04/10 09:43:10;;;;;;;5.35;3.35;;;11.30;51.80;;;;;;5097789;28;20043;-75
2022/04/10 09:45:38;;;;;;;6.97;4.18;;;11.40;52.30;;;;;;5116121;28;20106;-76
2022/04/10 09:48:31;;;;;;;9.93;5.07;;;11.50;52.20;;;;;;5116038;28;20019;-76
2022/04/10 09:51:02;;;;;;;8.88;3.15;;;11.60;51.80;;;;;;5097759;28;20027;-75
2022/04/10 09:53:33;;;;;;;4.57;3.05;;;11.80;51.30;;;;;;5115539;28;20063;-75
2022/04/10 09:56:07;;;;;;;8.98;3.75;;;11.80;50.50;;;;;;5097302;28;20024;-75
2022/04/10 09:58:34;;;;;;;9.68;3.28;;;11.90;51.00;;;;;;5115704;28;20031;-75
2022/04/10 10:01:03;;;;;;;4.88;3.03;;;12.00;50.00;;;;;;5115804;28;20034;-77
2022/04/10 10:03:30;;;;;;;4.43;2.95;;;12.10;50.60;;;;;;5097521;28;20409;-75
2022/04/10 10:05:57;;;;;;;6.63;3.30;;;12.20;49.00;;;;;;5097464;28;20031;-75
2022/04/10 10:08:25;;;;;;;9.93;3.03;;;12.30;47.30;;;;;;5115584;28;20031;-76
2022/04/10 10:10:51;;;;;;;5.13;2.47;;;12.30;47.10;;;;;;5115479;28;20020;-75
2022/04/10 10:13:18;;;;;;;6.10;2.65;;;12.30;46.30;;;;;;5097216;28;20108;-74
2022/04/10 10:15:44;;;;;;;4.75;2.72;;;12.30;45.20;;;;;;5097178;28;20023;-74
2022/04/10 10:18:13;;;;;;;7.78;2.60;;;12.30;44.70;;;;;;5115258;28;20031;-73
2022/04/10 10:20:42;;;;;;;6.63;2.40;;;12.30;45.10;;;;;;5097223;28;20065;-73
2022/04/10 10:23:10;;;;;;;3.92;2.25;;;12.30;44.00;;;;;;5097113;28;20034;-73
2022/04/10 10:25:39;;;;;;;7.63;2.45;;;12.40;43.80;;;;;;5097107;28;20405;-74
2022/04/10 10:28:23;;;;;;;4.40;1.92;;;12.40;44.60;;;;;;5115297;28;20028;-74
2022/04/10 10:31:19;;;;;;;5.10;1.70;;;12.50;42.50;;;;;;5114046;28;20024;-73
2022/04/10 10:33:51;;;;;;;3.15;1.90;;;12.50;42.10;;;;;;5115198;28;20027;-72
2022/04/10 10:36:29;;;;;;;5.05;1.92;;;12.60;40.80;;;;;;5095687;28;20063;-73
2022/04/10 10:38:57;;;;;;;2.95;1.98;;;12.70;41.10;;;;;;5096442;28;20049;-73
2022/04/10 10:41:23;;;;;;;3.22;1.65;;;12.80;41.00;;;;;;5096716;28;20161;-73
2022/04/10 10:43:49;;;;;;;5.65;1.80;;;12.90;39.80;;;;;;5113772;28;20118;-73
2022/04/10 10:46:34;;;;;;;3.15;1.75;;;13.00;39.60;;;;;;5096726;28;20034;-73
2022/04/10 10:49:11;;;;;;;6.20;1.60;;;13.10;39.70;;;;;;5096648;28;20039;-73
2022/04/10 10:51:39;;;;;;;5.88;1.70;;;13.10;37.50;;;;;;5114598;28;20386;-72
2022/04/10 10:54:10;;;;;;;8.82;1.92;;;13.20;38.20;;;;;;5096333;28;20031;-73
2022/04/10 10:56:42;;;;;;;4.15;1.50;;;13.10;37.20;;;;;;5114412;28;20498;-73
2022/04/10 10:59:27;;;;;;;14.43;2.13;;;13.20;37.90;;;;;;5096486;28;20026;-72
2022/04/10 11:02:04;;;;;;;5.82;1.50;;;13.20;36.50;;;;;;5114637;28;20027;-74
2022/04/10 11:04:43;;;;;;;4.20;1.60;;;13.30;37.30;;;;;;5096293;28;20024;-73
2022/04/10 11:07:27;;;;;;;5.38;1.60;;;13.30;36.10;;;;;;5096317;28;20107;-73
2022/04/10 11:10:04;;;;;;;8.20;2.05;;;13.40;37.00;;;;;;5114569;28;20047;-73
2022/04/10 11:12:34;;;;;;;4.97;1.70;;;13.50;36.90;;;;;;5096226;28;20020;-73
2022/04/10 11:15:21;;;;;;;5.55;1.88;;;13.60;36.10;;;;;;5096150;28;20126;-73
2022/04/10 11:17:51;;;;;;;5.00;1.48;;;13.70;36.40;;;;;;5096060;28;20055;-73
2022/04/10 11:20:21;;;;;;;4.88;1.80;;;13.60;35.50;;;;;;5114291;28;20020;-73
2022/04/10 11:22:53;;;;;;;3.42;1.80;;;13.50;35.50;;;;;;5114605;28;20034;-73
2022/04/10 11:25:29;;;;;;;6.20;2.15;;;13.50;34.20;;;;;;5112885;28;20023;-73
2022/04/10 11:27:57;;;;;;;4.97;1.80;;;13.40;33.70;;;;;;5114200;28;20021;-73
2022/04/10 11:30:41;;;;;;;4.22;1.58;;;13.40;34.80;;;;;;5114045;28;20023;-73
2022/04/10 11:33:12;;;;;;;3.47;1.35;;;13.40;34.80;;;;;;5095757;28;20119;-73
2022/04/10 11:35:40;;;;;;;5.32;1.70;;;13.50;34.80;;;;;;5113717;28;20073;-73
2022/04/10 11:38:17;;;;;;;5.00;1.77;;;13.50;33.20;;;;;;5095594;28;20031;-73
2022/04/10 11:40:50;;;;;;;3.83;1.42;;;13.50;32.30;;;;;;5111498;27;20054;-72
2022/04/10 11:43:18;;;;;;;2.53;1.45;;;13.40;32.70;;;;;;5116115;27;20058;-73
2022/04/10 11:45:45;;;;;;;4.63;1.48;;;13.50;33.50;;;;;;5134466;27;20015;-73
2022/04/10 11:48:11;;;;;;;1.88;1.25;;;13.40;33.50;;;;;;5115745;28;20019;-73
2022/04/10 11:50:38;;;;;;;4.70;1.48;;;13.50;33.60;;;;;;5116031;27;20019;-72
2022/04/10 11:53:09;;;;;;;3.20;1.27;;;13.40;32.60;;;;;;5115986;28;20027;-73
2022/04/10 11:55:42;;;;;;;2.45;1.05;;;13.40;32.50;;;;;;5115927;27;20042;-73
2022/04/10 11:58:21;;;;;;;5.10;1.33;;;13.40;32.90;;;;;;5115735;28;20027;-73
2022/04/10 12:00:52;;;;;;;3.08;1.50;;;13.40;32.90;;;;;;5115937;28;20036;-73
2022/04/10 12:03:18;;;;;;;1.45;1.20;;;13.50;33.40;;;;;;5115835;28;20031;-73
2022/04/10 12:05:44;;;;;;;4.40;1.92;;;13.60;33.00;;;;;;5115951;28;20100;-73
2022/04/10 12:08:11;;;;;;;3.55;1.40;;;13.70;32.30;;;;;;5115868;28;20480;-73
2022/04/10 12:10:37;;;;;;;5.65;1.80;;;13.70;32.80;;;;;;5134259;28;20058;-73
2022/04/10 12:13:04;;;;;;;3.03;1.00;;;13.90;32.50;;;;;;5115657;28;20103;-72
2022/04/10 12:15:30;;;;;;;8.80;1.30;;;13.90;32.50;;;;;;5115671;28;20038;-73
2022/04/10 12:18:09;;;;;;;3.90;1.40;;;14.00;32.90;;;;;;5115771;28;20023;-73
2022/04/10 12:20:39;;;;;;;3.72;1.15;;;14.00;32.70;;;;;;5115642;28;20498;-74
2022/04/10 12:23:18;;;;;;;6.38;1.50;;;14.00;33.30;;;;;;5115701;28;20092;-73
2022/04/10 12:25:45;;;;;;;2.17;1.17;;;14.10;32.90;;;;;;5133900;28;20046;-73
2022/04/10 12:28:11;;;;;;;6.78;1.30;;;14.20;33.60;;;;;;5115527;28;20437;-73
2022/04/10 12:30:38;;;;;;;2.00;0.90;;;14.20;32.10;;;;;;5133707;28;20153;-73
2022/04/10 12:33:05;;;;;;;4.97;0.80;;;14.20;30.00;;;;;;5115509;28;20034;-73
2022/04/10 12:35:43;;;;;;;5.38;1.42;;;14.20;29.30;;;;;;5115631;28;20153;-73
2022/04/10 12:38:11;;;;;;;3.50;1.27;;;14.10;28.80;;;;;;5115453;28;20027;-73
2022/04/10 12:40:37;;;;;;;2.00;0.90;;;14.20;29.60;;;;;;5115110;28;20051;-74
2022/04/10 12:43:05;;;;;;;6.40;0.95;;;14.30;29.50;;;;;;5133642;28;20038;-73
2022/04/10 12:45:33;;;;;;;4.68;1.33;;;14.40;28.50;;;;;;5115544;28;20028;-73
2022/04/10 12:47:59;;;;;;;4.38;1.25;;;14.50;29.60;;;;;;5133683;28;20433;-73
2022/04/10 12:50:26;;;;;;;1.65;0.80;;;14.60;29.00;;;;;;5115388;28;20019;-73
2022/04/10 12:52:55;;;;;;;3.13;1.08;;;14.70;28.90;;;;;;5133874;28;20035;-73
2022/04/10 12:55:36;;;;;;;3.20;0.98;;;14.80;28.50;;;;;;5115527;28;20051;-73
2022/04/10 12:58:09;;;;;;;4.63;1.10;;;14.80;28.10;;;;;;5115463;28;20412;-73
2022/04/10 13:00:43;;;;;;;2.60;0.90;;;14.90;28.60;;;;;;5118966;27;20023;-74
2022/04/10 13:03:26;;;;;;;2.47;1.08;;;14.90;28.50;;;;;;5137732;27;20027;-73